sensor_id;sensor_type;location;lat;lon;timestamp;pressure;altitude;pressure_sealevel;temperature;humidity
30949;BME280;17637;51.984;21.208;2023-09-19T00:01:53;99689.03;;;18.04;76.52
30949;BME280;17637;51.984;21.208;2023-09-19T00:04:24;99698.84;;;18.11;76.91
30949;BME280;17637;51.984;21.208;2023-09-19T00:07:00;99672.16;;;17.91;76.96
30949;BME280;17637;51.984;21.208;2023-09-19T00:09:34;99685.50;;;17.89;77.35
30949;BME280;17637;51.984;21.208;2023-09-19T00:12:08;99695.66;;;17.92;77.54
30949;BME280;17637;51.984;21.208;2023-09-19T00:14:41;99658.88;;;17.69;77.25
30949;BME280;17637;51.984;21.208;2023-09-19T00:17:13;99697.66;;;17.90;78.03
30949;BME280;17637;51.984;21.208;2023-09-19T00:19:44;99671.94;;;17.77;77.49
30949;BME280;17637;51.984;21.208;2023-09-19T00:22:18;99696.00;;;17.97;77.56
30949;BME280;17637;51.984;21.208;2023-09-19T00:24:50;99674.38;;;17.79;78.14
30949;BME280;17637;51.984;21.208;2023-09-19T00:27:24;99674.06;;;17.82;78.31
30949;BME280;17637;51.984;21.208;2023-09-19T00:29:56;99677.94;;;17.94;78.17
30949;BME280;17637;51.984;21.208;2023-09-19T00:32:28;99682.38;;;17.94;77.94
30949;BME280;17637;51.984;21.208;2023-09-19T00:35:03;99661.25;;;17.79;77.73
30949;BME280;17637;51.984;21.208;2023-09-19T00:37:37;99684.81;;;17.95;77.54
30949;BME280;17637;51.984;21.208;2023-09-19T00:40:11;99669.91;;;17.87;77.74
30949;BME280;17637;51.984;21.208;2023-09-19T00:42:45;99676.31;;;17.85;78.47
30949;BME280;17637;51.984;21.208;2023-09-19T00:45:17;99659.91;;;17.83;77.89
30949;BME280;17637;51.984;21.208;2023-09-19T00:47:51;99661.84;;;17.89;78.14
30949;BME280;17637;51.984;21.208;2023-09-19T00:50:24;99654.81;;;17.81;78.15
30949;BME280;17637;51.984;21.208;2023-09-19T00:52:58;99663.47;;;17.90;78.03
30949;BME280;17637;51.984;21.208;2023-09-19T00:55:30;99650.25;;;17.75;78.29
30949;BME280;17637;51.984;21.208;2023-09-19T00:58:04;99611.50;;;17.54;78.18
30949;BME280;17637;51.984;21.208;2023-09-19T01:00:40;99670.25;;;17.84;78.44
30949;BME280;17637;51.984;21.208;2023-09-19T01:03:12;99656.47;;;17.82;77.95
30949;BME280;17637;51.984;21.208;2023-09-19T01:05:45;99659.09;;;17.82;78.40
30949;BME280;17637;51.984;21.208;2023-09-19T01:08:17;99651.72;;;17.78;78.57
30949;BME280;17637;51.984;21.208;2023-09-19T01:10:58;99601.97;;;17.53;78.15
30949;BME280;17637;51.984;21.208;2023-09-19T01:13:53;99657.94;;;17.85;78.31
30949;BME280;17637;51.984;21.208;2023-09-19T01:16:36;99643.50;;;17.81;78.22
30949;BME280;17637;51.984;21.208;2023-09-19T01:31:02;99628.44;;;17.75;78.94
30949;BME280;17637;51.984;21.208;2023-09-19T01:33:58;99619.47;;;17.69;79.03
30949;BME280;17637;51.984;21.208;2023-09-19T01:36:37;99594.47;;;17.50;79.25
30949;BME280;17637;51.984;21.208;2023-09-19T01:39:11;99596.91;;;17.51;79.22
30949;BME280;17637;51.984;21.208;2023-09-19T01:42:00;99624.09;;;17.59;79.43
30949;BME280;17637;51.984;21.208;2023-09-19T01:44:47;99620.63;;;17.66;78.91
30949;BME280;17637;51.984;21.208;2023-09-19T01:47:27;99622.59;;;17.64;78.86
30949;BME280;17637;51.984;21.208;2023-09-19T01:50:29;99610.44;;;17.63;79.28
30949;BME280;17637;51.984;21.208;2023-09-19T01:53:10;99559.63;;;17.25;79.43
30949;BME280;17637;51.984;21.208;2023-09-19T01:55:48;99592.03;;;17.40;79.71
30949;BME280;17637;51.984;21.208;2023-09-19T01:58:27;99608.19;;;17.60;79.45
30949;BME280;17637;51.984;21.208;2023-09-19T02:01:03;99595.31;;;17.42;79.54
30949;BME280;17637;51.984;21.208;2023-09-19T02:03:38;99610.66;;;17.53;79.80
30949;BME280;17637;51.984;21.208;2023-09-19T02:06:15;99584.81;;;17.42;79.36
30949;BME280;17637;51.984;21.208;2023-09-19T02:08:47;99604.97;;;17.50;79.39
30949;BME280;17637;51.984;21.208;2023-09-19T02:11:19;99603.78;;;17.52;79.43
30949;BME280;17637;51.984;21.208;2023-09-19T02:13:51;99600.81;;;17.55;79.42
30949;BME280;17637;51.984;21.208;2023-09-19T02:16:26;99591.16;;;17.48;79.44
30949;BME280;17637;51.984;21.208;2023-09-19T02:18:58;99587.56;;;17.49;79.36
30949;BME280;17637;51.984;21.208;2023-09-19T02:21:31;99602.63;;;17.55;79.47
30949;BME280;17637;51.984;21.208;2023-09-19T02:24:03;99596.44;;;17.48;79.31
30949;BME280;17637;51.984;21.208;2023-09-19T02:26:35;99589.19;;;17.50;79.56
30949;BME280;17637;51.984;21.208;2023-09-19T02:29:08;99570.91;;;17.33;79.77
30949;BME280;17637;51.984;21.208;2023-09-19T02:31:44;99613.34;;;17.45;80.19
30949;BME280;17637;51.984;21.208;2023-09-19T02:34:18;99598.19;;;17.55;79.71
30949;BME280;17637;51.984;21.208;2023-09-19T02:36:50;99569.56;;;17.37;79.32
30949;BME280;17637;51.984;21.208;2023-09-19T02:39:22;99568.03;;;17.43;79.67
30949;BME280;17637;51.984;21.208;2023-09-19T02:41:55;99553.63;;;17.39;79.77
30949;BME280;17637;51.984;21.208;2023-09-19T02:44:27;99568.00;;;17.51;79.42
30949;BME280;17637;51.984;21.208;2023-09-19T02:46:59;99584.66;;;17.67;79.29
30949;BME280;17637;51.984;21.208;2023-09-19T02:49:31;99580.84;;;17.69;79.25
30949;BME280;17637;51.984;21.208;2023-09-19T02:52:03;99582.97;;;17.74;78.96
30949;BME280;17637;51.984;21.208;2023-09-19T02:54:35;99561.66;;;17.69;79.00
30949;BME280;17637;51.984;21.208;2023-09-19T02:57:08;99539.91;;;17.52;79.27
30949;BME280;17637;51.984;21.208;2023-09-19T02:59:40;99571.28;;;17.77;79.12
30949;BME280;17637;51.984;21.208;2023-09-19T03:02:13;99544.16;;;17.61;78.77
30949;BME280;17637;51.984;21.208;2023-09-19T03:04:45;99551.16;;;17.69;78.85
30949;BME280;17637;51.984;21.208;2023-09-19T03:07:18;99568.47;;;17.78;78.62
30949;BME280;17637;51.984;21.208;2023-09-19T03:09:50;99561.75;;;17.76;79.16
30949;BME280;17637;51.984;21.208;2023-09-19T03:12:24;99531.75;;;17.47;78.83
30949;BME280;17637;51.984;21.208;2023-09-19T03:14:56;99555.00;;;17.58;79.19
30949;BME280;17637;51.984;21.208;2023-09-19T03:17:28;99534.50;;;17.53;79.23
30949;BME280;17637;51.984;21.208;2023-09-19T03:20:00;99531.41;;;17.50;79.14
30949;BME280;17637;51.984;21.208;2023-09-19T03:22:32;99531.72;;;17.55;79.24
30949;BME280;17637;51.984;21.208;2023-09-19T03:25:04;99523.97;;;17.53;79.45
30949;BME280;17637;51.984;21.208;2023-09-19T03:27:40;99529.13;;;17.47;79.65
30949;BME280;17637;51.984;21.208;2023-09-19T03:30:12;99519.97;;;17.43;79.73
30949;BME280;17637;51.984;21.208;2023-09-19T03:32:46;99532.59;;;17.47;79.83
30949;BME280;17637;51.984;21.208;2023-09-19T03:35:19;99531.75;;;17.47;79.46
30949;BME280;17637;51.984;21.208;2023-09-19T03:37:51;99534.38;;;17.47;79.48
30949;BME280;17637;51.984;21.208;2023-09-19T03:40:24;99531.56;;;17.48;79.78
30949;BME280;17637;51.984;21.208;2023-09-19T03:43:00;99498.75;;;17.29;79.19
30949;BME280;17637;51.984;21.208;2023-09-19T03:45:33;99543.59;;;17.43;79.99
30949;BME280;17637;51.984;21.208;2023-09-19T03:48:09;99530.28;;;17.44;79.84
30949;BME280;17637;51.984;21.208;2023-09-19T03:50:41;99540.63;;;17.46;80.17
30949;BME280;17637;51.984;21.208;2023-09-19T03:53:13;99516.25;;;17.37;79.84
30949;BME280;17637;51.984;21.208;2023-09-19T03:55:45;99536.78;;;17.57;79.77
30949;BME280;17637;51.984;21.208;2023-09-19T03:58:18;99526.59;;;17.53;79.95
30949;BME280;17637;51.984;21.208;2023-09-19T04:00:50;99508.94;;;17.47;79.92
30949;BME280;17637;51.984;21.208;2023-09-19T04:03:22;99532.28;;;17.65;79.60
30949;BME280;17637;51.984;21.208;2023-09-19T04:05:54;99525.91;;;17.60;79.83
30949;BME280;17637;51.984;21.208;2023-09-19T04:08:26;99508.78;;;17.49;79.50
30949;BME280;17637;51.984;21.208;2023-09-19T04:10:58;99522.41;;;17.67;79.78
30949;BME280;17637;51.984;21.208;2023-09-19T04:13:29;99507.00;;;17.64;79.46
30949;BME280;17637;51.984;21.208;2023-09-19T04:16:02;99498.31;;;17.64;79.24
30949;BME280;17637;51.984;21.208;2023-09-19T04:18:35;99515.97;;;17.70;79.44
30949;BME280;17637;51.984;21.208;2023-09-19T04:21:09;99503.69;;;17.70;79.03
30949;BME280;17637;51.984;21.208;2023-09-19T04:23:41;99498.41;;;17.70;79.10
30949;BME280;17637;51.984;21.208;2023-09-19T04:26:14;99501.63;;;17.81;79.04
30949;BME280;17637;51.984;21.208;2023-09-19T04:28:48;99494.44;;;17.75;78.95
30949;BME280;17637;51.984;21.208;2023-09-19T04:31:20;99498.53;;;17.77;78.83
30949;BME280;17637;51.984;21.208;2023-09-19T04:33:53;99455.88;;;17.52;79.05
30949;BME280;17637;51.984;21.208;2023-09-19T04:36:25;99487.50;;;17.82;78.69
30949;BME280;17637;51.984;21.208;2023-09-19T04:39:06;99471.88;;;17.65;79.10
30949;BME280;17637;51.984;21.208;2023-09-19T04:41:39;99456.09;;;17.65;79.04
30949;BME280;17637;51.984;21.208;2023-09-19T04:44:12;99484.50;;;17.85;78.78
30949;BME280;17637;51.984;21.208;2023-09-19T04:46:44;99461.56;;;17.79;78.72
30949;BME280;17637;51.984;21.208;2023-09-19T04:49:20;99482.44;;;17.95;78.68
30949;BME280;17637;51.984;21.208;2023-09-19T04:51:52;99475.44;;;17.87;79.05
30949;BME280;17637;51.984;21.208;2023-09-19T04:54:24;99477.38;;;17.94;78.67
30949;BME280;17637;51.984;21.208;2023-09-19T04:56:56;99468.16;;;17.75;78.97
30949;BME280;17637;51.984;21.208;2023-09-19T04:59:28;99472.91;;;17.79;78.56
30949;BME280;17637;51.984;21.208;2023-09-19T05:02:00;99479.00;;;17.95;78.91
30949;BME280;17637;51.984;21.208;2023-09-19T05:04:32;99484.78;;;17.90;78.92
30949;BME280;17637;51.984;21.208;2023-09-19T05:07:04;99465.09;;;17.86;78.65
30949;BME280;17637;51.984;21.208;2023-09-19T05:09:36;99487.69;;;17.95;79.18
30949;BME280;17637;51.984;21.208;2023-09-19T05:12:08;99478.53;;;17.91;79.49
30949;BME280;17637;51.984;21.208;2023-09-19T05:14:42;99484.19;;;18.03;78.93
30949;BME280;17637;51.984;21.208;2023-09-19T05:17:14;99478.22;;;18.09;78.79
30949;BME280;17637;51.984;21.208;2023-09-19T05:19:48;99475.22;;;17.97;78.91
30949;BME280;17637;51.984;21.208;2023-09-19T05:22:20;99461.63;;;18.09;78.15
30949;BME280;17637;51.984;21.208;2023-09-19T05:24:52;99470.69;;;18.21;77.98
30949;BME280;17637;51.984;21.208;2023-09-19T05:27:24;99473.13;;;18.23;78.48
30949;BME280;17637;51.984;21.208;2023-09-19T05:29:56;99442.84;;;18.12;77.82
30949;BME280;17637;51.984;21.208;2023-09-19T05:32:28;99475.84;;;18.44;77.54
30949;BME280;17637;51.984;21.208;2023-09-19T05:35:00;99475.47;;;18.47;77.36
30949;BME280;17637;51.984;21.208;2023-09-19T05:37:32;99446.56;;;18.32;77.47
30949;BME280;17637;51.984;21.208;2023-09-19T05:40:04;99472.75;;;18.56;77.40
30949;BME280;17637;51.984;21.208;2023-09-19T05:42:42;99432.94;;;18.29;76.93
30949;BME280;17637;51.984;21.208;2023-09-19T05:45:15;99468.41;;;18.48;77.84
30949;BME280;17637;51.984;21.208;2023-09-19T05:47:51;99450.97;;;18.47;77.11
30949;BME280;17637;51.984;21.208;2023-09-19T05:50:27;99472.66;;;18.64;77.10
30949;BME280;17637;51.984;21.208;2023-09-19T05:52:59;99446.94;;;18.66;76.13
30949;BME280;17637;51.984;21.208;2023-09-19T05:55:32;99464.25;;;18.75;76.49
30949;BME280;17637;51.984;21.208;2023-09-19T05:58:04;99428.41;;;18.52;76.62
30949;BME280;17637;51.984;21.208;2023-09-19T06:00:36;99460.28;;;18.79;76.55
30949;BME280;17637;51.984;21.208;2023-09-19T06:03:10;99430.72;;;18.62;75.95
30949;BME280;17637;51.984;21.208;2023-09-19T06:05:45;99457.06;;;18.84;76.40
30949;BME280;17637;51.984;21.208;2023-09-19T06:08:18;99460.53;;;18.84;75.96
30949;BME280;17637;51.984;21.208;2023-09-19T06:10:50;99454.38;;;18.92;75.45
30949;BME280;17637;51.984;21.208;2023-09-19T06:13:23;99443.44;;;18.95;75.50
30949;BME280;17637;51.984;21.208;2023-09-19T06:15:58;99459.41;;;19.09;75.18
30949;BME280;17637;51.984;21.208;2023-09-19T06:18:31;99441.81;;;18.94;75.19
30949;BME280;17637;51.984;21.208;2023-09-19T06:21:05;99429.69;;;18.93;74.78
30949;BME280;17637;51.984;21.208;2023-09-19T06:23:39;99397.75;;;18.45;75.27
30949;BME280;17637;51.984;21.208;2023-09-19T06:26:11;99476.44;;;19.13;75.34
30949;BME280;17637;51.984;21.208;2023-09-19T06:28:44;99466.47;;;19.08;74.77
30949;BME280;17637;51.984;21.208;2023-09-19T06:31:16;99466.47;;;19.08;75.17
30949;BME280;17637;51.984;21.208;2023-09-19T06:33:48;99438.84;;;18.82;75.15
30949;BME280;17637;51.984;21.208;2023-09-19T06:36:20;99450.22;;;19.05;74.89
30949;BME280;17637;51.984;21.208;2023-09-19T06:38:52;99451.41;;;19.02;74.21
30949;BME280;17637;51.984;21.208;2023-09-19T06:41:25;99459.25;;;19.17;74.29
30949;BME280;17637;51.984;21.208;2023-09-19T06:43:56;99479.69;;;19.37;73.91
30949;BME280;17637;51.984;21.208;2023-09-19T06:46:29;99483.97;;;19.38;74.00
30949;BME280;17637;51.984;21.208;2023-09-19T06:49:04;99487.09;;;19.48;74.13
30949;BME280;17637;51.984;21.208;2023-09-19T06:51:37;99486.72;;;19.51;73.28
30949;BME280;17637;51.984;21.208;2023-09-19T06:54:10;99467.09;;;19.32;73.74
30949;BME280;17637;51.984;21.208;2023-09-19T06:56:42;99494.19;;;19.47;73.54
30949;BME280;17637;51.984;21.208;2023-09-19T06:59:13;99496.44;;;19.50;73.87
30949;BME280;17637;51.984;21.208;2023-09-19T07:01:46;99487.22;;;19.40;73.44
30949;BME280;17637;51.984;21.208;2023-09-19T07:04:19;99493.09;;;19.42;73.54
30949;BME280;17637;51.984;21.208;2023-09-19T07:06:53;99507.97;;;19.49;73.68
30949;BME280;17637;51.984;21.208;2023-09-19T07:09:25;99489.78;;;19.33;73.72
30949;BME280;17637;51.984;21.208;2023-09-19T07:11:59;99516.81;;;19.42;74.15
30949;BME280;17637;51.984;21.208;2023-09-19T07:14:31;99522.41;;;19.54;73.58
30949;BME280;17637;51.984;21.208;2023-09-19T07:17:04;99506.16;;;19.50;73.39
30949;BME280;17637;51.984;21.208;2023-09-19T07:19:35;99502.16;;;19.54;73.41
30949;BME280;17637;51.984;21.208;2023-09-19T07:22:07;99527.47;;;19.77;73.07
30949;BME280;17637;51.984;21.208;2023-09-19T07:24:39;99504.50;;;19.71;73.00
30949;BME280;17637;51.984;21.208;2023-09-19T07:27:11;99512.38;;;19.86;72.22
30949;BME280;17637;51.984;21.208;2023-09-19T07:29:43;99536.00;;;20.00;72.06
30949;BME280;17637;51.984;21.208;2023-09-19T07:32:14;99539.94;;;20.11;72.56
30949;BME280;17637;51.984;21.208;2023-09-19T07:34:48;99518.78;;;20.05;72.15
30949;BME280;17637;51.984;21.208;2023-09-19T07:37:20;99537.53;;;20.16;71.92
30949;BME280;17637;51.984;21.208;2023-09-19T07:39:53;99533.88;;;20.17;70.78
30949;BME280;17637;51.984;21.208;2023-09-19T07:42:25;99531.19;;;20.11;71.78
30949;BME280;17637;51.984;21.208;2023-09-19T07:44:57;99502.16;;;20.04;72.00
30949;BME280;17637;51.984;21.208;2023-09-19T07:47:29;99534.94;;;20.23;72.04
30949;BME280;17637;51.984;21.208;2023-09-19T07:50:02;99512.75;;;20.17;71.13
30949;BME280;17637;51.984;21.208;2023-09-19T07:52:34;99546.88;;;20.54;71.27
30949;BME280;17637;51.984;21.208;2023-09-19T07:55:06;99522.13;;;20.20;69.91
30949;BME280;17637;51.984;21.208;2023-09-19T07:57:43;99542.38;;;20.48;70.74
30949;BME280;17637;51.984;21.208;2023-09-19T08:00:15;99527.19;;;20.50;70.41
30949;BME280;17637;51.984;21.208;2023-09-19T08:02:47;99527.22;;;20.63;69.72
30949;BME280;17637;51.984;21.208;2023-09-19T08:05:28;99508.72;;;20.57;68.81
30949;BME280;17637;51.984;21.208;2023-09-19T08:08:00;99548.94;;;21.01;68.97
30949;BME280;17637;51.984;21.208;2023-09-19T08:10:34;99552.94;;;20.83;67.46
30949;BME280;17637;51.984;21.208;2023-09-19T08:13:07;99550.97;;;21.05;68.34
30949;BME280;17637;51.984;21.208;2023-09-19T08:15:43;99547.91;;;21.02;67.44
30949;BME280;17637;51.984;21.208;2023-09-19T08:18:16;99523.91;;;20.90;67.74
30949;BME280;17637;51.984;21.208;2023-09-19T08:20:52;99532.09;;;21.08;66.50
30949;BME280;17637;51.984;21.208;2023-09-19T08:23:24;99538.84;;;21.18;67.47
30949;BME280;17637;51.984;21.208;2023-09-19T08:25:56;99546.78;;;21.24;67.85
30949;BME280;17637;51.984;21.208;2023-09-19T08:28:29;99560.63;;;21.33;66.91
30949;BME280;17637;51.984;21.208;2023-09-19T08:31:05;99553.72;;;21.45;67.59
30949;BME280;17637;51.984;21.208;2023-09-19T08:33:37;99550.84;;;21.40;65.95
30949;BME280;17637;51.984;21.208;2023-09-19T08:36:11;99522.53;;;21.07;67.45
30949;BME280;17637;51.984;21.208;2023-09-19T08:38:45;99550.84;;;21.34;65.60
30949;BME280;17637;51.984;21.208;2023-09-19T08:41:17;99547.78;;;21.37;65.87
30949;BME280;17637;51.984;21.208;2023-09-19T08:43:50;99547.41;;;21.33;66.44
30949;BME280;17637;51.984;21.208;2023-09-19T08:46:26;99519.31;;;21.19;67.00
30949;BME280;17637;51.984;21.208;2023-09-19T08:49:05;99552.44;;;21.21;67.52
30949;BME280;17637;51.984;21.208;2023-09-19T08:51:45;99523.22;;;21.36;67.03
30949;BME280;17637;51.984;21.208;2023-09-19T08:54:26;99554.06;;;21.22;65.82
30949;BME280;17637;51.984;21.208;2023-09-19T08:57:00;99553.91;;;21.44;65.03
30949;BME280;17637;51.984;21.208;2023-09-19T08:59:39;99555.69;;;21.17;66.41
30949;BME280;17637;51.984;21.208;2023-09-19T09:02:12;99546.13;;;21.16;66.19
30949;BME280;17637;51.984;21.208;2023-09-19T09:04:45;99561.84;;;21.37;65.86
30949;BME280;17637;51.984;21.208;2023-09-19T09:07:18;99561.22;;;21.42;65.78
30949;BME280;17637;51.984;21.208;2023-09-19T09:09:50;99549.00;;;21.21;67.64
30949;BME280;17637;51.984;21.208;2023-09-19T09:12:22;99542.28;;;21.31;67.81
30949;BME280;17637;51.984;21.208;2023-09-19T09:14:55;99568.81;;;21.58;67.08
30949;BME280;17637;51.984;21.208;2023-09-19T09:17:29;99541.91;;;21.28;65.85
30949;BME280;17637;51.984;21.208;2023-09-19T09:20:01;99540.69;;;21.37;66.49
30949;BME280;17637;51.984;21.208;2023-09-19T09:22:34;99542.53;;;21.50;66.17
30949;BME280;17637;51.984;21.208;2023-09-19T09:25:08;99571.66;;;21.63;66.06
30949;BME280;17637;51.984;21.208;2023-09-19T09:30:32;99592.84;;;21.70;65.78
30949;BME280;17637;51.984;21.208;2023-09-19T09:33:09;99562.00;;;21.22;65.97
30949;BME280;17637;51.984;21.208;2023-09-19T09:35:54;99592.16;;;21.55;65.95
30949;BME280;17637;51.984;21.208;2023-09-19T09:38:30;99566.28;;;21.37;66.02
30949;BME280;17637;51.984;21.208;2023-09-19T09:41:16;99601.63;;;21.22;67.13
30949;BME280;17637;51.984;21.208;2023-09-19T09:44:12;99605.44;;;21.06;67.45
30949;BME280;17637;51.984;21.208;2023-09-19T09:46:47;99602.72;;;20.93;67.14
30949;BME280;17637;51.984;21.208;2023-09-19T09:49:51;99618.59;;;20.64;68.87
30949;BME280;17637;51.984;21.208;2023-09-19T09:52:26;99595.31;;;20.40;69.21
30949;BME280;17637;51.984;21.208;2023-09-19T09:55:02;99621.97;;;20.52;69.71
30949;BME280;17637;51.984;21.208;2023-09-19T09:57:37;99598.03;;;20.25;70.02
30949;BME280;17637;51.984;21.208;2023-09-19T10:00:12;99631.00;;;20.36;69.84
30949;BME280;17637;51.984;21.208;2023-09-19T10:02:44;99615.88;;;20.23;70.54
30949;BME280;17637;51.984;21.208;2023-09-19T10:05:20;99611.94;;;20.12;70.76
30949;BME280;17637;51.984;21.208;2023-09-19T10:07:52;99609.56;;;19.95;71.49
30949;BME280;17637;51.984;21.208;2023-09-19T10:10:34;99635.94;;;19.95;72.07
30949;BME280;17637;51.984;21.208;2023-09-19T10:13:15;99623.16;;;19.77;73.19
30949;BME280;17637;51.984;21.208;2023-09-19T10:15:53;99648.63;;;19.48;74.59
30949;BME280;17637;51.984;21.208;2023-09-19T10:18:27;99632.38;;;19.45;75.25
30949;BME280;17637;51.984;21.208;2023-09-19T10:21:02;99654.00;;;19.40;77.02
30949;BME280;17637;51.984;21.208;2023-09-19T10:23:36;99647.81;;;19.33;77.85
30949;BME280;17637;51.984;21.208;2023-09-19T10:26:09;99644.69;;;19.08;79.11
30949;BME280;17637;51.984;21.208;2023-09-19T10:28:41;99659.31;;;19.10;80.67
30949;BME280;17637;51.984;21.208;2023-09-19T10:31:18;99650.41;;;19.11;81.39
30949;BME280;17637;51.984;21.208;2023-09-19T10:33:52;99639.38;;;18.78;82.89
30949;BME280;17637;51.984;21.208;2023-09-19T10:36:26;99645.69;;;18.77;82.93
30949;BME280;17637;51.984;21.208;2023-09-19T10:38:59;99652.91;;;18.75;84.18
30949;BME280;17637;51.984;21.208;2023-09-19T10:41:34;99664.44;;;18.74;84.62
30949;BME280;17637;51.984;21.208;2023-09-19T10:44:06;99659.91;;;18.67;85.46
30949;BME280;17637;51.984;21.208;2023-09-19T10:46:38;99641.13;;;18.71;83.71
30949;BME280;17637;51.984;21.208;2023-09-19T10:49:10;99644.75;;;18.69;84.46
30949;BME280;17637;51.984;21.208;2023-09-19T10:51:44;99663.19;;;18.84;84.72
30949;BME280;17637;51.984;21.208;2023-09-19T10:54:18;99659.25;;;18.80;83.81
30949;BME280;17637;51.984;21.208;2023-09-19T10:56:53;99667.81;;;18.82;85.16
30949;BME280;17637;51.984;21.208;2023-09-19T10:59:25;99657.81;;;18.78;84.70
30949;BME280;17637;51.984;21.208;2023-09-19T11:01:57;99642.03;;;18.78;84.13
30949;BME280;17637;51.984;21.208;2023-09-19T11:04:31;99666.75;;;18.92;85.09
30949;BME280;17637;51.984;21.208;2023-09-19T11:07:13;99648.66;;;18.89;85.06
30949;BME280;17637;51.984;21.208;2023-09-19T11:09:49;99666.47;;;19.01;84.56
30949;BME280;17637;51.984;21.208;2023-09-19T11:26:51;99628.34;;;19.12;84.63
30949;BME280;17637;51.984;21.208;2023-09-19T11:29:25;99641.41;;;19.21;83.75
30949;BME280;17637;51.984;21.208;2023-09-19T11:31:57;99652.69;;;19.14;84.92
30949;BME280;17637;51.984;21.208;2023-09-19T11:34:42;99669.19;;;19.38;84.78
30949;BME280;17637;51.984;21.208;2023-09-19T11:40:08;99646.94;;;19.11;83.89
30949;BME280;17637;51.984;21.208;2023-09-19T11:42:48;99670.38;;;19.21;85.08
30949;BME280;17637;51.984;21.208;2023-09-19T11:48:23;99676.53;;;19.28;85.93
30949;BME280;17637;51.984;21.208;2023-09-19T11:50:57;99677.91;;;19.24;85.46
30949;BME280;17637;51.984;21.208;2023-09-19T11:53:31;99674.00;;;19.20;85.78
30949;BME280;17637;51.984;21.208;2023-09-19T11:56:06;99678.47;;;19.19;85.00
30949;BME280;17637;51.984;21.208;2023-09-19T11:58:43;99674.00;;;19.20;85.09
30949;BME280;17637;51.984;21.208;2023-09-19T12:01:22;99676.25;;;19.23;85.43
30949;BME280;17637;51.984;21.208;2023-09-19T12:03:58;99679.16;;;19.28;85.12
30949;BME280;17637;51.984;21.208;2023-09-19T12:06:31;99676.53;;;19.28;85.13
30949;BME280;17637;51.984;21.208;2023-09-19T12:09:12;99667.94;;;19.19;85.99
30949;BME280;17637;51.984;21.208;2023-09-19T12:11:47;99642.97;;;19.00;85.15
30949;BME280;17637;51.984;21.208;2023-09-19T12:14:25;99647.59;;;19.13;85.44
30949;BME280;17637;51.984;21.208;2023-09-19T12:16:58;99678.97;;;19.44;84.39
30949;BME280;17637;51.984;21.208;2023-09-19T12:19:32;99677.03;;;19.53;83.99
30949;BME280;17637;51.984;21.208;2023-09-19T12:22:04;99691.47;;;19.57;85.28
30949;BME280;17637;51.984;21.208;2023-09-19T12:24:36;99688.84;;;19.57;84.58
30949;BME280;17637;51.984;21.208;2023-09-19T12:27:10;99672.34;;;19.48;84.17
30949;BME280;17637;51.984;21.208;2023-09-19T12:29:49;99704.03;;;19.55;85.50
30949;BME280;17637;51.984;21.208;2023-09-19T12:32:36;99696.16;;;19.40;85.44
30949;BME280;17637;51.984;21.208;2023-09-19T12:35:27;99718.31;;;19.46;85.25
30949;BME280;17637;51.984;21.208;2023-09-19T12:38:00;99715.31;;;19.49;86.18
30949;BME280;17637;51.984;21.208;2023-09-19T12:40:32;99704.56;;;19.50;86.49
30949;BME280;17637;51.984;21.208;2023-09-19T12:43:08;99728.94;;;19.53;85.46
30949;BME280;17637;51.984;21.208;2023-09-19T12:45:42;99719.50;;;19.43;86.11
30949;BME280;17637;51.984;21.208;2023-09-19T12:51:03;99724.59;;;19.45;85.75
30949;BME280;17637;51.984;21.208;2023-09-19T12:53:43;99681.25;;;19.32;86.61
30949;BME280;17637;51.984;21.208;2023-09-19T12:56:17;99699.63;;;19.41;85.95
30949;BME280;17637;51.984;21.208;2023-09-19T12:58:53;99719.91;;;19.62;87.14
30949;BME280;17637;51.984;21.208;2023-09-19T13:01:27;99709.25;;;19.70;86.93
30949;BME280;17637;51.984;21.208;2023-09-19T13:06:48;99680.78;;;19.59;86.12
30949;BME280;17637;51.984;21.208;2023-09-19T13:09:22;99703.38;;;19.83;85.42
30949;BME280;17637;51.984;21.208;2023-09-19T13:11:56;99708.56;;;19.61;86.32
30949;BME280;17637;51.984;21.208;2023-09-19T13:14:30;99710.97;;;19.78;84.98
30949;BME280;17637;51.984;21.208;2023-09-19T13:17:12;99688.69;;;19.59;86.57
30949;BME280;17637;51.984;21.208;2023-09-19T13:19:54;99705.63;;;19.71;86.83
30949;BME280;17637;51.984;21.208;2023-09-19T13:22:44;99709.81;;;19.80;85.35
30949;BME280;17637;51.984;21.208;2023-09-19T13:25:27;99674.13;;;19.63;86.05
30949;BME280;17637;51.984;21.208;2023-09-19T13:28:04;99706.53;;;19.63;84.91
30949;BME280;17637;51.984;21.208;2023-09-19T13:30:37;99702.66;;;19.59;84.84
30949;BME280;17637;51.984;21.208;2023-09-19T13:33:13;99707.19;;;19.65;85.22
30949;BME280;17637;51.984;21.208;2023-09-19T13:35:52;99719.78;;;19.85;83.94
30949;BME280;17637;51.984;21.208;2023-09-19T13:38:24;99714.63;;;19.77;84.88
30949;BME280;17637;51.984;21.208;2023-09-19T13:40:56;99720.34;;;19.80;85.20
30949;BME280;17637;51.984;21.208;2023-09-19T13:43:28;99724.78;;;19.80;86.11
30949;BME280;17637;51.984;21.208;2023-09-19T13:46:00;99720.81;;;19.69;86.45
30949;BME280;17637;51.984;21.208;2023-09-19T13:48:33;99718.78;;;19.86;85.75
30949;BME280;17637;51.984;21.208;2023-09-19T13:51:07;99715.22;;;19.79;87.18
30949;BME280;17637;51.984;21.208;2023-09-19T13:53:39;99724.13;;;19.78;87.72
30949;BME280;17637;51.984;21.208;2023-09-19T13:56:10;99721.81;;;19.68;87.35
30949;BME280;17637;51.984;21.208;2023-09-19T13:58:42;99724.91;;;19.72;86.47
30949;BME280;17637;51.984;21.208;2023-09-19T14:01:14;99691.22;;;19.52;86.20
30949;BME280;17637;51.984;21.208;2023-09-19T14:03:46;99700.75;;;19.53;86.63
30949;BME280;17637;51.984;21.208;2023-09-19T14:06:21;99719.25;;;19.75;86.50
30949;BME280;17637;51.984;21.208;2023-09-19T14:08:52;99727.34;;;19.73;87.56